createdAt,value
2019-03-26T00:02:14.582Z,99.90
2019-03-26T00:04:43.489Z,99.90
2019-03-26T00:07:12.401Z,99.90
2019-03-26T00:09:41.325Z,99.90
2019-03-26T00:12:11.888Z,99.90
2019-03-26T00:14:40.778Z,99.90
2019-03-26T00:17:09.685Z,99.90
2019-03-26T00:19:38.595Z,99.90
2019-03-26T00:22:07.502Z,99.90
2019-03-26T00:24:36.320Z,99.90
2019-03-26T00:27:07.680Z,99.90
2019-03-26T00:29:35.863Z,99.90
2019-03-26T00:32:04.769Z,99.90
2019-03-26T00:34:33.779Z,99.90
2019-03-26T00:37:02.611Z,99.90
2019-03-26T00:39:31.597Z,99.90
2019-03-26T00:42:00.502Z,99.90
2019-03-26T00:44:29.415Z,99.90
2019-03-26T00:46:58.404Z,99.90
2019-03-26T00:49:27.349Z,99.90
2019-03-26T00:51:56.337Z,99.90
2019-03-26T00:54:25.253Z,99.90
2019-03-26T00:56:54.154Z,99.90
2019-03-26T00:59:23.061Z,99.90
2019-03-26T01:01:51.969Z,99.90
2019-03-26T01:04:32.069Z,99.90
2019-03-26T01:06:51.423Z,99.90
2019-03-26T01:09:20.332Z,99.90
2019-03-26T01:11:49.250Z,99.90
2019-03-26T01:14:18.061Z,99.90
2019-03-26T01:16:47.054Z,99.90
2019-03-26T01:19:15.960Z,99.90
2019-03-26T01:21:45.077Z,99.90
2019-03-26T01:24:13.981Z,99.90
2019-03-26T01:26:42.890Z,99.90
2019-03-26T01:29:11.901Z,99.90
2019-03-26T01:31:40.806Z,99.90
2019-03-26T01:34:09.713Z,99.90
2019-03-26T01:36:38.622Z,99.90
2019-03-26T01:39:08.144Z,99.90
2019-03-26T01:41:37.997Z,99.90
2019-03-26T01:44:06.982Z,99.90
2019-03-26T01:46:35.994Z,99.90
2019-03-26T01:49:04.903Z,99.90
2019-03-26T01:51:33.810Z,99.90
2019-03-26T01:54:02.702Z,99.90
2019-03-26T01:56:31.625Z,99.90
2019-03-26T01:59:00.533Z,99.90
2019-03-26T02:01:29.445Z,99.90
2019-03-26T02:03:58.348Z,99.90
2019-03-26T02:06:27.289Z,99.90
2019-03-26T02:08:56.277Z,99.90
2019-03-26T02:11:25.173Z,99.90
2019-03-26T02:13:54.075Z,99.90
2019-03-26T02:16:22.990Z,99.90
2019-03-26T02:18:51.896Z,99.90
2019-03-26T02:21:21.400Z,99.90
2019-03-26T02:23:50.328Z,99.90
2019-03-26T02:26:19.338Z,99.90
2019-03-26T02:28:48.231Z,99.90
2019-03-26T02:31:17.342Z,99.90
2019-03-26T02:33:48.170Z,99.90
2019-03-26T02:36:16.809Z,99.90
2019-03-26T02:38:45.717Z,99.90
2019-03-26T02:41:14.609Z,99.90
2019-03-26T02:43:43.622Z,99.90
2019-03-26T02:46:12.544Z,99.90
2019-03-26T02:48:41.480Z,99.90
2019-03-26T02:51:10.358Z,99.90
2019-03-26T02:53:39.371Z,99.90
2019-03-26T02:56:08.275Z,99.90
2019-03-26T02:58:37.185Z,99.90
2019-03-26T03:01:06.209Z,99.90
2019-03-26T03:03:35.203Z,99.90
2019-03-26T03:06:04.115Z,99.90
2019-03-26T03:08:33.025Z,99.90
2019-03-26T03:11:01.928Z,99.90
2019-03-26T03:13:30.837Z,99.90
2019-03-26T03:15:59.733Z,99.90
2019-03-26T03:18:28.755Z,99.90
2019-03-26T03:20:59.374Z,99.90
2019-03-26T03:23:28.309Z,99.90
2019-03-26T03:25:57.216Z,99.90
2019-03-26T03:28:26.126Z,99.90
2019-03-26T03:30:55.036Z,99.90
2019-03-26T03:33:23.944Z,99.90
2019-03-26T03:35:53.144Z,99.90
2019-03-26T03:38:22.367Z,99.90
2019-03-26T03:40:51.278Z,99.90
2019-03-26T03:43:20.188Z,99.90
2019-03-26T03:45:49.251Z,99.90
2019-03-26T03:48:18.306Z,99.90
2019-03-26T03:50:47.317Z,99.90
2019-03-26T03:53:18.168Z,99.90
2019-03-26T03:55:48.202Z,99.90
2019-03-26T03:58:19.161Z,99.90
2019-03-26T04:00:48.068Z,99.90
2019-03-26T04:03:16.972Z,99.90
2019-03-26T04:05:45.955Z,99.90
2019-03-26T04:08:14.913Z,99.90
2019-03-26T04:10:43.903Z,99.90
2019-03-26T04:13:12.813Z,99.90
2019-03-26T04:15:41.701Z,99.90
2019-03-26T04:18:10.629Z,99.90
2019-03-26T04:20:39.513Z,99.90
2019-03-26T04:23:08.439Z,99.90
2019-03-26T04:25:37.342Z,99.90
2019-03-26T04:28:06.361Z,99.90
2019-03-26T04:30:35.453Z,99.90
2019-03-26T04:33:05.507Z,99.90
2019-03-26T04:35:34.516Z,99.90
2019-03-26T04:38:03.522Z,99.90
2019-03-26T04:40:32.368Z,99.90
2019-03-26T04:43:01.442Z,99.90
2019-03-26T04:45:30.358Z,99.90
2019-03-26T04:47:59.256Z,99.90
2019-03-26T04:50:28.167Z,99.90
2019-03-26T04:52:57.071Z,99.90
2019-03-26T04:55:26.081Z,99.90
2019-03-26T04:57:54.989Z,99.90
2019-03-26T05:00:23.898Z,99.90
2019-03-26T05:02:52.907Z,99.90
2019-03-26T05:05:22.023Z,99.90
2019-03-26T05:07:50.927Z,99.90
2019-03-26T05:10:19.838Z,99.90
2019-03-26T05:12:48.742Z,99.90
2019-03-26T05:15:17.630Z,99.90
2019-03-26T05:17:46.564Z,99.90
2019-03-26T05:20:15.466Z,99.90
2019-03-26T05:22:44.375Z,99.90
2019-03-26T05:25:13.702Z,99.90
2019-03-26T05:27:45.744Z,99.90
2019-03-26T05:30:13.349Z,99.90
2019-03-26T05:32:42.262Z,99.90
2019-03-26T05:35:11.640Z,99.90
2019-03-26T05:37:40.591Z,99.90
2019-03-26T05:40:10.108Z,99.90
2019-03-26T05:42:39.200Z,99.90
2019-03-26T05:45:09.587Z,99.90
2019-03-26T05:47:38.569Z,99.90
2019-03-26T05:50:09.522Z,99.90
2019-03-26T05:52:38.743Z,99.90
2019-03-26T05:55:08.382Z,99.90
2019-03-26T05:57:37.864Z,99.90
2019-03-26T06:00:13.383Z,99.90
2019-03-26T06:02:42.248Z,99.90
2019-03-26T06:05:11.258Z,99.90
2019-03-26T06:07:40.168Z,99.90
2019-03-26T06:10:09.587Z,99.90
2019-03-26T06:12:38.498Z,99.90
2019-03-26T06:15:08.621Z,99.90
2019-03-26T06:17:37.537Z,99.90
2019-03-26T06:20:08.291Z,99.90
2019-03-26T06:22:37.299Z,99.90
2019-03-26T06:25:07.849Z,99.90
2019-03-26T06:27:36.856Z,99.90
2019-03-26T06:30:08.729Z,99.90
2019-03-26T06:32:37.943Z,99.90
2019-03-26T06:35:09.210Z,99.90
2019-03-26T06:37:38.114Z,99.90
2019-03-26T06:40:09.445Z,99.90
2019-03-26T06:42:38.572Z,99.90
2019-03-26T06:45:09.625Z,99.90
2019-03-26T06:47:37.839Z,99.90
2019-03-26T06:50:09.614Z,99.90
2019-03-26T06:52:38.522Z,99.90
2019-03-26T06:55:08.553Z,99.90
2019-03-26T06:57:38.079Z,99.90
2019-03-26T07:00:10.159Z,99.90
2019-03-26T07:02:39.457Z,99.90
2019-03-26T07:05:08.668Z,99.90
2019-03-26T07:07:37.698Z,99.90
2019-03-26T07:10:08.231Z,99.90
2019-03-26T07:12:37.257Z,99.90
2019-03-26T07:15:07.712Z,99.90
2019-03-26T07:17:37.012Z,99.90
2019-03-26T07:20:07.743Z,99.90
2019-03-26T07:22:36.653Z,99.90
2019-03-26T07:25:08.012Z,99.90
2019-03-26T07:27:37.351Z,99.90
2019-03-26T07:30:08.410Z,99.90
2019-03-26T07:32:36.528Z,99.90
2019-03-26T07:35:07.080Z,99.90
2019-03-26T07:37:45.201Z,99.90
2019-03-26T07:40:07.568Z,99.90
2019-03-26T07:42:36.451Z,99.90
2019-03-26T07:45:08.523Z,99.90
2019-03-26T07:47:37.417Z,99.90
2019-03-26T07:50:07.756Z,99.90
2019-03-26T07:52:36.665Z,99.90
2019-03-26T07:55:07.804Z,99.90
2019-03-26T07:57:36.116Z,99.90
2019-03-26T08:00:08.096Z,99.90
2019-03-26T08:02:37.002Z,99.90
2019-03-26T08:05:08.264Z,99.90
2019-03-26T08:07:37.778Z,99.90
2019-03-26T08:10:08.538Z,99.90
2019-03-26T08:12:37.532Z,99.90
2019-03-26T08:15:09.755Z,99.90
2019-03-26T08:17:38.640Z,99.90
2019-03-26T08:20:08.364Z,99.90
2019-03-26T08:22:37.377Z,99.90
2019-03-26T08:25:07.799Z,99.90
2019-03-26T08:27:36.724Z,99.90
2019-03-26T08:30:09.520Z,99.90
2019-03-26T08:32:38.531Z,99.90
2019-03-26T08:35:08.136Z,99.90
2019-03-26T08:37:37.063Z,99.90
2019-03-26T08:40:09.124Z,99.90
2019-03-26T08:42:38.050Z,99.90
2019-03-26T08:45:08.601Z,99.90
2019-03-26T08:47:37.504Z,99.90
2019-03-26T08:50:07.935Z,99.90
2019-03-26T08:52:36.855Z,99.90
2019-03-26T08:55:09.805Z,99.90
2019-03-26T08:57:38.766Z,99.90
2019-03-26T09:00:10.742Z,99.90
2019-03-26T09:02:39.650Z,99.90
2019-03-26T09:05:09.797Z,99.90
2019-03-26T09:07:38.694Z,99.90
2019-03-26T09:10:10.569Z,99.90
2019-03-26T09:12:39.781Z,99.90
2019-03-26T09:15:10.417Z,99.90
2019-03-26T09:17:40.448Z,99.90
2019-03-26T09:20:10.907Z,99.90
2019-03-26T09:22:39.816Z,99.90
2019-03-26T09:25:11.049Z,99.90
2019-03-26T09:27:39.989Z,99.90
2019-03-26T09:30:11.760Z,99.90
2019-03-26T09:32:40.668Z,99.90
2019-03-26T09:35:09.865Z,99.90
2019-03-26T09:37:38.790Z,99.90
2019-03-26T09:40:09.335Z,99.90
2019-03-26T09:42:38.661Z,99.90
2019-03-26T09:45:11.451Z,99.90
2019-03-26T09:47:40.355Z,99.90
2019-03-26T09:50:11.886Z,99.90
2019-03-26T09:52:40.839Z,99.90
2019-03-26T09:55:11.281Z,99.90
2019-03-26T09:57:40.294Z,99.90
2019-03-26T10:00:13.432Z,99.90
2019-03-26T10:02:43.398Z,99.90
2019-03-26T10:05:13.442Z,99.90
2019-03-26T10:07:42.313Z,99.90
2019-03-26T10:10:11.489Z,99.90
2019-03-26T10:12:40.395Z,99.90
2019-03-26T10:15:09.599Z,99.90
2019-03-26T10:17:38.609Z,99.90
2019-03-26T10:20:09.263Z,99.90
2019-03-26T10:22:41.133Z,99.90
2019-03-26T10:25:11.255Z,99.90
2019-03-26T10:27:40.482Z,99.90
2019-03-26T10:30:12.359Z,99.90
2019-03-26T10:32:41.472Z,98.80
2019-03-26T10:35:10.825Z,95.20
2019-03-26T10:37:39.800Z,93.30
2019-03-26T10:40:09.733Z,92.00
2019-03-26T10:42:38.671Z,93.70
2019-03-26T10:45:08.044Z,92.60
2019-03-26T10:47:36.968Z,92.20
2019-03-26T10:50:07.307Z,93.30
2019-03-26T10:52:36.216Z,94.10
2019-03-26T10:55:06.250Z,94.70
2019-03-26T10:57:35.666Z,96.10
2019-03-26T11:00:06.944Z,96.20
2019-03-26T11:02:35.119Z,95.90
2019-03-26T11:05:05.465Z,96.20
2019-03-26T11:07:34.470Z,96.70
2019-03-26T11:10:03.568Z,94.90
2019-03-26T11:12:32.474Z,95.00
2019-03-26T11:15:01.524Z,95.60
2019-03-26T11:17:30.406Z,96.80
2019-03-26T11:19:59.317Z,97.80
2019-03-26T11:22:28.222Z,98.80
2019-03-26T11:24:57.130Z,98.90
2019-03-26T11:27:26.043Z,99.90
2019-03-26T11:29:54.950Z,99.90
2019-03-26T11:32:23.772Z,99.90
2019-03-26T11:34:52.660Z,99.90
2019-03-26T11:37:21.771Z,99.90
2019-03-26T11:39:50.681Z,99.90
2019-03-26T11:42:19.690Z,99.90
2019-03-26T11:44:48.700Z,99.90
2019-03-26T11:47:17.609Z,99.90
2019-03-26T11:49:46.520Z,99.90
2019-03-26T11:52:15.423Z,99.90
2019-03-26T11:54:44.436Z,99.90
2019-03-26T11:57:13.340Z,99.90
2019-03-26T11:59:42.168Z,99.90
2019-03-26T12:02:12.026Z,99.90
2019-03-26T12:04:40.987Z,99.90
2019-03-26T12:07:09.904Z,99.90
2019-03-26T12:09:46.223Z,99.90
2019-03-26T12:12:09.348Z,99.30
2019-03-26T12:14:38.371Z,98.70
2019-03-26T12:17:07.275Z,97.90
2019-03-26T12:19:36.274Z,99.50
2019-03-26T12:22:05.386Z,99.90
2019-03-26T12:24:34.294Z,99.90
2019-03-26T12:27:03.204Z,99.90
2019-03-26T12:29:32.214Z,99.90
2019-03-26T12:32:01.122Z,99.90
2019-03-26T12:34:30.025Z,99.90
2019-03-26T12:37:00.730Z,99.90
2019-03-26T12:39:29.687Z,99.90
2019-03-26T12:41:58.695Z,99.90
2019-03-26T12:44:28.052Z,99.90
2019-03-26T12:46:58.333Z,99.90
2019-03-26T12:49:27.677Z,99.90
2019-03-26T12:51:56.685Z,99.90
2019-03-26T12:54:25.569Z,99.90
2019-03-26T12:56:54.500Z,99.90
2019-03-26T12:59:26.293Z,99.90
2019-03-26T13:01:54.050Z,99.90
2019-03-26T13:04:23.060Z,99.90
2019-03-26T13:06:52.586Z,99.90
2019-03-26T13:09:21.409Z,99.90
2019-03-26T13:11:50.398Z,99.90
2019-03-26T13:14:19.307Z,99.90
2019-03-26T13:16:48.523Z,99.90
2019-03-26T13:19:17.433Z,99.90
2019-03-26T13:21:46.342Z,99.90
2019-03-26T13:24:15.252Z,99.90
2019-03-26T13:26:44.355Z,99.90
2019-03-26T13:29:13.366Z,99.90
2019-03-26T13:31:42.382Z,99.90
2019-03-26T13:34:11.285Z,99.90
2019-03-26T13:36:40.191Z,99.90
2019-03-26T13:39:09.698Z,99.90
2019-03-26T13:41:38.726Z,99.90
2019-03-26T13:44:07.633Z,99.90
2019-03-26T13:46:36.641Z,99.90
2019-03-26T13:49:05.651Z,99.90
2019-03-26T13:51:37.032Z,99.90
2019-03-26T13:54:05.104Z,99.90
2019-03-26T13:56:34.015Z,99.90
2019-03-26T13:59:02.847Z,99.90
2019-03-26T14:01:31.830Z,99.90
2019-03-26T14:04:00.736Z,99.90
2019-03-26T14:06:32.365Z,99.90
2019-03-26T14:09:00.404Z,99.90
2019-03-26T14:11:29.300Z,99.90
2019-03-26T14:13:58.210Z,99.90
2019-03-26T14:16:27.116Z,99.90
2019-03-26T14:18:56.130Z,99.90
2019-03-26T14:21:25.036Z,99.90
2019-03-26T14:23:53.866Z,99.90
2019-03-26T14:26:22.748Z,99.90
2019-03-26T14:28:51.654Z,99.90
2019-03-26T14:31:20.562Z,99.90
2019-03-26T14:33:49.575Z,99.90
2019-03-26T14:36:18.687Z,99.90
2019-03-26T14:38:47.593Z,99.90
2019-03-26T14:41:16.501Z,99.90
2019-03-26T14:43:45.410Z,99.90
2019-03-26T14:46:14.419Z,99.90
2019-03-26T14:48:43.329Z,99.90
2019-03-26T14:51:12.240Z,99.90
2019-03-26T14:53:41.146Z,99.90
2019-03-26T14:56:10.050Z,99.90
2019-03-26T14:58:39.917Z,99.90
2019-03-26T15:01:08.889Z,99.90
2019-03-26T15:03:39.004Z,99.90
2019-03-26T15:06:07.947Z,99.90
2019-03-26T15:08:36.842Z,99.90
2019-03-26T15:11:08.220Z,99.90
2019-03-26T15:13:36.293Z,99.90
2019-03-26T15:16:05.303Z,99.90
2019-03-26T15:18:34.213Z,99.90
2019-03-26T15:21:03.219Z,99.90
2019-03-26T15:23:32.235Z,99.90
2019-03-26T15:26:01.141Z,99.90
2019-03-26T15:28:30.049Z,99.90
2019-03-26T15:30:58.955Z,99.90
2019-03-26T15:33:27.862Z,99.90
2019-03-26T15:35:56.770Z,99.90
2019-03-26T15:38:25.783Z,99.90
2019-03-26T15:40:54.690Z,99.90
2019-03-26T15:43:23.597Z,99.90
2019-03-26T15:45:52.504Z,99.90
2019-03-26T15:48:21.415Z,99.90
2019-03-26T15:50:50.404Z,99.90
2019-03-26T15:53:19.430Z,99.90
2019-03-26T15:55:48.347Z,99.90
2019-03-26T15:58:17.235Z,99.90
2019-03-26T16:00:46.159Z,99.90
2019-03-26T16:03:15.040Z,99.90
2019-03-26T16:05:44.076Z,99.90
2019-03-26T16:08:12.980Z,99.90
2019-03-26T16:10:41.888Z,99.90
2019-03-26T16:13:10.798Z,99.90
2019-03-26T16:15:44.521Z,99.90
2019-03-26T16:18:10.254Z,99.90
2019-03-26T16:20:39.099Z,99.90
2019-03-26T16:23:08.069Z,99.90
2019-03-26T16:25:36.977Z,99.90
2019-03-26T16:28:05.882Z,99.90
2019-03-26T16:30:34.769Z,99.90
2019-03-26T16:33:03.695Z,99.90
2019-03-26T16:35:32.612Z,99.90
2019-03-26T16:38:01.511Z,99.90
2019-03-26T16:40:30.521Z,99.90
2019-03-26T16:42:59.431Z,99.90
2019-03-26T16:45:28.439Z,99.90
2019-03-26T16:47:57.469Z,99.90
2019-03-26T16:50:26.359Z,99.90
2019-03-26T16:52:55.263Z,99.90
2019-03-26T16:55:25.145Z,99.90
2019-03-26T16:57:54.002Z,99.90
2019-03-26T17:00:33.057Z,99.90
2019-03-26T17:03:02.239Z,99.90
2019-03-26T17:05:31.267Z,99.90
2019-03-26T17:08:00.274Z,99.90
2019-03-26T17:10:29.369Z,99.90
2019-03-26T17:12:58.603Z,99.90
2019-03-26T17:15:27.516Z,99.90
2019-03-26T17:17:56.404Z,99.90
2019-03-26T17:20:25.427Z,99.90
2019-03-26T17:22:54.526Z,99.90
2019-03-26T17:25:23.452Z,99.90
2019-03-26T17:27:52.358Z,99.90
2019-03-26T17:30:21.268Z,99.90
2019-03-26T17:32:50.172Z,99.90
2019-03-26T17:35:19.057Z,99.90
2019-03-26T17:37:58.937Z,99.90
2019-03-26T17:40:18.532Z,99.90
2019-03-26T17:42:47.440Z,99.90
2019-03-26T17:45:18.209Z,99.90
2019-03-26T17:47:46.896Z,99.90
2019-03-26T17:50:15.800Z,99.90
2019-03-26T17:52:44.705Z,99.90
2019-03-26T17:55:13.718Z,99.90
2019-03-26T17:57:43.586Z,99.90
2019-03-26T18:00:15.510Z,99.90
2019-03-26T18:02:44.433Z,99.90
2019-03-26T18:05:29.615Z,99.90
2019-03-26T18:07:58.522Z,99.90
2019-03-26T18:10:27.531Z,99.90
2019-03-26T18:12:57.454Z,99.90
2019-03-26T18:15:26.371Z,99.90
2019-03-26T18:17:55.279Z,99.60
2019-03-26T18:20:32.450Z,99.90
2019-03-26T18:22:54.833Z,99.90
2019-03-26T18:25:23.653Z,99.40
2019-03-26T18:27:52.557Z,99.40
2019-03-26T18:30:21.455Z,99.10
2019-03-26T18:32:50.366Z,98.40
2019-03-26T18:35:19.269Z,97.60
2019-03-26T18:37:48.178Z,97.20
2019-03-26T18:40:17.272Z,96.80
2019-03-26T18:42:46.300Z,96.20
2019-03-26T18:45:15.514Z,94.80
2019-03-26T18:47:44.527Z,93.90
2019-03-26T18:50:13.640Z,93.30
2019-03-26T18:52:42.551Z,91.80
2019-03-26T18:55:11.658Z,91.70
2019-03-26T18:57:40.565Z,88.10
2019-03-26T19:00:12.441Z,87.00
2019-03-26T19:02:41.450Z,85.80
2019-03-26T19:05:12.240Z,85.50
2019-03-26T19:07:41.109Z,84.70
2019-03-26T19:10:27.620Z,82.50
2019-03-26T19:12:57.405Z,82.90
2019-03-26T19:15:26.661Z,83.30
2019-03-26T19:17:55.569Z,83.10
2019-03-26T19:20:24.480Z,82.60
2019-03-26T19:22:53.386Z,82.30
2019-03-26T19:25:22.293Z,81.60
2019-03-26T19:27:51.187Z,82.10
2019-03-26T19:30:20.114Z,82.00
2019-03-26T19:32:48.951Z,81.90
2019-03-26T19:35:17.929Z,82.70
2019-03-26T19:37:46.833Z,83.40
2019-03-26T19:40:15.828Z,82.50
2019-03-26T19:42:44.684Z,83.00
2019-03-26T19:45:13.870Z,84.50
2019-03-26T19:47:42.873Z,85.10
2019-03-26T19:50:12.876Z,86.30
2019-03-26T19:52:41.814Z,86.50
2019-03-26T19:55:11.428Z,85.70
2019-03-26T19:57:40.345Z,85.30
2019-03-26T20:00:14.474Z,85.90
2019-03-26T20:02:44.199Z,85.50
2019-03-26T20:05:13.734Z,85.60
2019-03-26T20:07:42.690Z,84.80
2019-03-26T20:10:12.827Z,85.80
2019-03-26T20:12:42.085Z,85.70
2019-03-26T20:15:12.032Z,86.50
2019-03-26T20:17:40.921Z,85.80
2019-03-26T20:20:10.345Z,86.40
2019-03-26T20:22:39.884Z,86.50
2019-03-26T20:25:09.762Z,86.00
2019-03-26T20:27:38.702Z,86.90
2019-03-26T20:30:09.427Z,87.50
2019-03-26T20:32:38.359Z,88.10
2019-03-26T20:35:08.792Z,87.60
2019-03-26T20:37:37.710Z,88.80
2019-03-26T20:40:08.352Z,88.60
2019-03-26T20:42:37.660Z,89.10
2019-03-26T20:45:09.553Z,90.30
2019-03-26T20:47:38.861Z,90.10
2019-03-26T20:50:09.396Z,90.40
2019-03-26T20:52:38.422Z,90.30
2019-03-26T20:55:09.748Z,91.40
2019-03-26T20:57:38.593Z,91.50
2019-03-26T21:00:09.955Z,92.40
2019-03-26T21:02:39.070Z,92.30
2019-03-26T21:05:09.009Z,93.00
2019-03-26T21:07:38.734Z,93.00
2019-03-26T21:10:08.584Z,93.30
2019-03-26T21:12:37.592Z,93.50
2019-03-26T21:15:08.502Z,93.60
2019-03-26T21:17:38.747Z,94.10
2019-03-26T21:20:10.297Z,94.60
2019-03-26T21:22:39.452Z,94.50
2019-03-26T21:25:10.040Z,94.20
2019-03-26T21:27:39.098Z,94.50
2019-03-26T21:30:15.319Z,94.50
2019-03-26T21:32:41.414Z,95.00
2019-03-26T21:35:10.725Z,95.40
2019-03-26T21:37:40.158Z,95.50
2019-03-26T21:40:10.990Z,95.90
2019-03-26T21:42:39.967Z,96.10
2019-03-26T21:45:11.582Z,95.70
2019-03-26T21:47:40.489Z,96.00
2019-03-26T21:50:09.992Z,96.20
2019-03-26T21:52:38.900Z,96.40
2019-03-26T21:55:09.363Z,96.60
2019-03-26T21:57:38.270Z,97.20
2019-03-26T22:00:08.889Z,97.90
2019-03-26T22:02:37.827Z,98.30
2019-03-26T22:05:08.869Z,99.20
2019-03-26T22:07:36.971Z,99.90
2019-03-26T22:10:07.011Z,99.90
2019-03-26T22:12:35.912Z,99.90
2019-03-26T22:15:06.971Z,99.90
2019-03-26T22:17:35.160Z,99.90
2019-03-26T22:20:05.402Z,99.90
2019-03-26T22:22:34.516Z,99.90
2019-03-26T22:25:03.910Z,99.90
2019-03-26T22:27:32.943Z,99.90
2019-03-26T22:30:01.851Z,99.90
2019-03-26T22:32:30.755Z,99.90
2019-03-26T22:34:59.868Z,99.90
2019-03-26T22:37:28.775Z,99.90
2019-03-26T22:39:58.968Z,99.90
2019-03-26T22:42:27.922Z,99.90
2019-03-26T22:44:56.828Z,99.90
2019-03-26T22:47:25.753Z,99.90
2019-03-26T22:49:57.175Z,99.90
2019-03-26T22:52:25.190Z,99.90
2019-03-26T22:54:54.036Z,99.90
2019-03-26T22:57:23.007Z,99.90
2019-03-26T22:59:52.016Z,99.90
2019-03-26T23:02:20.925Z,99.90
2019-03-26T23:04:49.831Z,99.90
2019-03-26T23:07:18.738Z,99.90
2019-03-26T23:09:47.645Z,99.90
2019-03-26T23:12:16.554Z,99.90
2019-03-26T23:14:45.713Z,99.90
2019-03-26T23:17:14.781Z,99.90
2019-03-26T23:19:43.687Z,99.90
2019-03-26T23:22:12.508Z,99.90
2019-03-26T23:24:41.501Z,99.90
2019-03-26T23:27:10.407Z,99.90
2019-03-26T23:29:39.316Z,99.90
2019-03-26T23:32:08.231Z,99.90
2019-03-26T23:34:37.154Z,99.90
2019-03-26T23:37:06.143Z,99.90
2019-03-26T23:39:35.048Z,99.90
2019-03-26T23:42:03.958Z,99.90
2019-03-26T23:44:32.866Z,99.90
2019-03-26T23:47:01.755Z,99.90
2019-03-26T23:49:30.679Z,99.90
2019-03-26T23:51:59.594Z,99.90
2019-03-26T23:54:28.494Z,99.90
2019-03-26T23:56:57.403Z,99.90
2019-03-26T23:59:26.289Z,99.90
